createdAt,value
2023-05-02T00:01:56.984Z,100806.59
2023-05-02T00:04:43.909Z,100801.69
2023-05-02T00:07:34.023Z,100801.53
2023-05-02T00:10:20.766Z,100804.53
2023-05-02T00:13:07.903Z,100809.94
2023-05-02T00:15:54.610Z,100800.88
2023-05-02T00:18:45.804Z,100800.94
2023-05-02T00:21:33.645Z,100805.63
2023-05-02T00:24:20.303Z,100803.88
2023-05-02T00:27:07.625Z,100792.53
2023-05-02T00:29:55.159Z,100799.28
2023-05-02T00:32:42.270Z,100805.03
2023-05-02T00:35:30.508Z,100799.16
2023-05-02T00:38:17.250Z,100795.75
2023-05-02T00:41:05.533Z,100793.44
2023-05-02T00:43:52.246Z,100791.91
2023-05-02T00:46:39.315Z,100797.44
2023-05-02T00:49:26.147Z,100789.78
2023-05-02T00:52:14.242Z,100791.03
2023-05-02T00:55:03.431Z,100796.38
2023-05-02T00:57:50.189Z,100786.88
2023-05-02T01:00:50.626Z,100790.91
2023-05-02T01:03:42.779Z,100781.56
2023-05-02T01:06:37.921Z,100783.34
2023-05-02T01:09:41.162Z,100785.19
2023-05-02T01:12:32.368Z,100783.47
2023-05-02T01:15:23.513Z,100782.91
2023-05-02T01:18:13.281Z,100789.13
2023-05-02T01:21:04.352Z,100783.81
2023-05-02T01:24:02.654Z,100798.66
2023-05-02T01:26:57.923Z,100794.31
2023-05-02T01:29:48.532Z,100796.66
2023-05-02T01:32:38.466Z,100795.03
2023-05-02T01:35:27.643Z,100790.69
2023-05-02T01:38:16.561Z,100797.88
2023-05-02T01:41:07.364Z,100805.78
2023-05-02T01:43:56.887Z,100804.91
2023-05-02T01:46:46.326Z,100801.31
2023-05-02T01:49:35.937Z,100808.75
2023-05-02T01:52:24.806Z,100809.38
2023-05-02T01:55:15.418Z,100811.72
2023-05-02T01:58:03.309Z,100810.91
2023-05-02T02:00:51.541Z,100812.19
2023-05-02T02:03:39.941Z,100808.47
2023-05-02T02:06:27.654Z,100817.84
2023-05-02T02:09:14.901Z,100816.56
2023-05-02T02:12:06.882Z,100815.50
2023-05-02T02:14:58.456Z,100790.72
2023-05-02T02:17:48.951Z,100832.09
2023-05-02T02:20:37.574Z,100830.75
2023-05-02T02:23:28.421Z,100830.56
2023-05-02T02:26:15.742Z,100842.50
2023-05-02T02:29:02.643Z,100837.25
2023-05-02T02:31:49.586Z,100844.41
2023-05-02T02:34:36.342Z,100848.56
2023-05-02T02:37:30.384Z,100845.34
2023-05-02T02:40:24.512Z,100857.00
2023-05-02T02:43:18.577Z,100861.72
2023-05-02T02:46:18.163Z,100870.75
2023-05-02T02:49:19.534Z,100869.91
2023-05-02T02:52:12.363Z,100886.00
2023-05-02T02:55:08.385Z,100881.53
2023-05-02T02:58:01.627Z,100853.19
2023-05-02T03:00:49.808Z,100895.88
2023-05-02T03:03:37.683Z,100905.56
2023-05-02T03:06:25.368Z,100900.91
2023-05-02T03:09:17.875Z,100899.88
2023-05-02T03:12:07.656Z,100907.06
2023-05-02T03:15:09.252Z,100908.88
2023-05-02T03:17:55.899Z,100909.59
2023-05-02T03:20:42.591Z,100908.03
2023-05-02T03:23:29.826Z,100920.81
2023-05-02T03:26:17.531Z,100926.31
2023-05-02T03:29:06.224Z,100930.59
2023-05-02T03:31:58.039Z,100927.69
2023-05-02T03:34:45.474Z,100932.38
2023-05-02T03:37:31.953Z,100928.19
2023-05-02T03:40:21.941Z,100932.72
2023-05-02T03:43:08.862Z,100947.09
2023-05-02T03:45:57.070Z,100951.97
2023-05-02T03:48:46.493Z,100956.19
2023-05-02T03:51:33.945Z,100962.06
2023-05-02T03:54:20.448Z,100958.94
2023-05-02T03:57:08.174Z,100974.47
2023-05-02T03:59:55.442Z,100980.19
2023-05-02T04:02:48.722Z,100981.88
2023-05-02T04:05:39.239Z,100981.81
2023-05-02T04:08:26.328Z,100985.44
2023-05-02T04:11:13.421Z,100993.41
2023-05-02T04:14:00.500Z,100994.25
2023-05-02T04:16:50.930Z,101004.09
2023-05-02T04:19:44.453Z,101012.78
2023-05-02T04:22:33.250Z,101011.47
2023-05-02T04:25:23.456Z,101021.13
2023-05-02T04:28:12.403Z,101019.34
2023-05-02T04:30:59.294Z,101027.03
2023-05-02T04:33:48.976Z,101030.03
2023-05-02T04:36:40.572Z,101025.75
2023-05-02T04:39:30.962Z,101025.16
2023-05-02T04:42:21.855Z,101029.44
2023-05-02T04:45:16.664Z,101029.09
2023-05-02T04:48:05.587Z,101027.25
2023-05-02T04:50:54.173Z,101014.66
2023-05-02T04:53:42.860Z,101028.91
2023-05-02T04:56:29.310Z,101036.91
2023-05-02T04:59:16.011Z,101042.41
2023-05-02T05:02:03.129Z,101051.31
2023-05-02T05:04:50.030Z,101057.03
2023-05-02T05:07:38.130Z,101054.03
2023-05-02T05:10:27.838Z,101055.22
2023-05-02T05:13:14.921Z,101061.25
2023-05-02T05:16:04.088Z,101063.84
2023-05-02T05:18:54.006Z,101072.13
2023-05-02T05:21:40.777Z,101073.78
2023-05-02T05:24:28.359Z,101068.72
2023-05-02T05:27:18.435Z,101074.66
2023-05-02T05:30:05.732Z,101070.84
2023-05-02T05:32:53.194Z,101087.22
2023-05-02T05:35:41.155Z,101085.69
2023-05-02T05:38:28.043Z,101091.06
2023-05-02T05:41:14.770Z,101090.31
2023-05-02T05:44:07.781Z,101103.31
2023-05-02T05:46:54.831Z,101098.16
2023-05-02T05:49:43.238Z,101099.72
2023-05-02T05:52:30.436Z,101115.22
2023-05-02T05:55:19.509Z,101114.38
2023-05-02T05:58:07.264Z,101118.22
2023-05-02T06:00:56.843Z,101124.47
2023-05-02T06:03:43.749Z,101135.72
2023-05-02T06:06:31.830Z,101144.69
2023-05-02T06:09:18.787Z,101144.38
2023-05-02T06:12:05.750Z,101153.44
2023-05-02T06:14:54.098Z,101152.88
2023-05-02T06:17:42.687Z,101170.53
2023-05-02T06:20:29.524Z,101181.25
2023-05-02T06:23:16.346Z,101170.97
2023-05-02T06:26:04.273Z,101189.28
2023-05-02T06:28:50.905Z,101187.34
2023-05-02T06:31:37.861Z,101176.91
2023-05-02T06:34:26.071Z,101197.53
2023-05-02T06:37:12.849Z,101201.38
2023-05-02T06:39:59.741Z,101207.75
2023-05-02T06:42:48.229Z,101221.25
2023-05-02T06:45:35.300Z,101216.03
2023-05-02T06:48:22.619Z,101218.06
2023-05-02T06:51:11.137Z,101219.38
2023-05-02T06:53:57.681Z,101219.50
2023-05-02T06:56:44.643Z,101226.59
2023-05-02T06:59:31.469Z,101234.41
2023-05-02T07:02:18.284Z,101243.28
2023-05-02T07:05:05.134Z,101240.31
2023-05-02T07:07:52.890Z,101247.25
2023-05-02T07:10:39.661Z,101255.03
2023-05-02T07:13:26.316Z,101256.94
2023-05-02T07:16:13.301Z,101262.78
2023-05-02T07:19:00.256Z,101261.53
2023-05-02T07:21:46.713Z,101265.16
2023-05-02T07:24:35.119Z,101266.69
2023-05-02T07:27:21.654Z,101269.75
2023-05-02T07:30:09.588Z,101267.09
2023-05-02T07:32:56.024Z,101273.72
2023-05-02T07:35:43.482Z,101273.34
2023-05-02T07:38:29.988Z,101268.13
2023-05-02T07:41:18.169Z,101264.50
2023-05-02T07:44:05.186Z,101270.00
2023-05-02T07:46:51.808Z,101268.78
2023-05-02T07:49:38.552Z,101271.88
2023-05-02T07:52:25.890Z,101266.69
2023-05-02T07:55:12.871Z,101269.94
2023-05-02T07:58:01.072Z,101284.22
2023-05-02T08:00:47.542Z,101284.16
2023-05-02T08:03:34.770Z,101288.47
2023-05-02T08:06:22.644Z,101293.63
2023-05-02T08:09:09.608Z,101303.53
2023-05-02T08:11:56.572Z,101306.38
2023-05-02T08:14:44.673Z,101308.47
2023-05-02T08:17:31.937Z,101313.72
2023-05-02T08:20:18.564Z,101316.06
2023-05-02T08:23:05.325Z,101326.41
2023-05-02T08:25:52.009Z,101324.34
2023-05-02T08:28:38.707Z,101334.50
2023-05-02T08:31:27.069Z,101342.84
2023-05-02T08:34:13.600Z,101344.16
2023-05-02T08:37:00.319Z,101347.28
2023-05-02T08:39:47.161Z,101358.22
2023-05-02T08:42:34.992Z,101360.03
2023-05-02T08:45:22.806Z,101364.25
2023-05-02T08:48:13.463Z,101369.28
2023-05-02T08:51:00.800Z,101368.97
2023-05-02T08:53:48.068Z,101372.50
2023-05-02T08:56:34.691Z,101376.13
2023-05-02T08:59:21.650Z,101377.50
2023-05-02T09:02:29.164Z,101379.47
2023-05-02T09:05:21.544Z,101386.34
2023-05-02T09:08:08.870Z,101389.91
2023-05-02T09:10:56.062Z,101398.81
2023-05-02T09:13:44.079Z,101403.34
2023-05-02T09:16:31.286Z,101410.19
2023-05-02T09:19:25.980Z,101409.78
2023-05-02T09:22:24.332Z,101421.38
2023-05-02T09:25:11.876Z,101420.56
2023-05-02T09:28:01.563Z,101425.63
2023-05-02T09:30:48.290Z,101432.59
2023-05-02T09:33:35.082Z,101429.47
2023-05-02T09:36:22.809Z,101431.28
2023-05-02T09:39:13.675Z,101432.69
2023-05-02T09:42:01.532Z,101429.06
2023-05-02T09:44:48.978Z,101428.69
2023-05-02T09:47:36.611Z,101436.81
2023-05-02T09:50:39.563Z,101441.44
2023-05-02T09:53:27.324Z,101434.66
2023-05-02T09:56:15.941Z,101448.06
2023-05-02T09:59:16.170Z,101461.00
2023-05-02T10:02:05.440Z,101466.78
2023-05-02T10:04:54.834Z,101462.19
2023-05-02T10:07:41.562Z,101468.81
2023-05-02T10:10:29.190Z,101473.09
2023-05-02T10:13:20.717Z,101479.38
2023-05-02T10:16:08.480Z,101486.19
2023-05-02T10:19:04.260Z,101503.22
2023-05-02T10:21:52.511Z,101496.28
2023-05-02T10:24:41.256Z,101490.38
2023-05-02T10:27:28.277Z,101496.88
2023-05-02T10:30:20.470Z,101494.34
2023-05-02T10:33:07.805Z,101493.72
2023-05-02T10:35:54.749Z,101488.94
2023-05-02T10:38:42.584Z,101503.53
2023-05-02T10:41:33.273Z,101505.09
2023-05-02T10:44:33.206Z,101506.41
2023-05-02T10:47:22.594Z,101521.94
2023-05-02T10:50:12.362Z,101526.53
2023-05-02T10:52:59.372Z,101533.56
2023-05-02T10:55:46.338Z,101539.44
2023-05-02T10:58:33.244Z,101538.84
2023-05-02T11:01:42.960Z,101518.91
2023-05-02T11:05:08.101Z,101542.88
2023-05-02T11:08:28.264Z,101560.66
2023-05-02T11:12:02.987Z,101563.63
2023-05-02T11:14:51.101Z,101569.91
2023-05-02T11:18:02.562Z,101571.53
2023-05-02T11:20:49.449Z,101583.34
2023-05-02T11:23:37.322Z,101587.97
2023-05-02T11:26:26.279Z,101584.38
2023-05-02T11:29:15.807Z,101587.97
2023-05-02T11:32:10.952Z,101590.56
2023-05-02T11:34:58.747Z,101597.66
2023-05-02T11:37:54.051Z,101608.38
2023-05-02T11:40:41.115Z,101617.59
2023-05-02T11:43:31.910Z,101619.31
2023-05-02T11:46:21.178Z,101629.34
2023-05-02T11:49:11.001Z,101623.69
2023-05-02T11:52:00.324Z,101633.91
2023-05-02T11:54:47.503Z,101636.09
2023-05-02T11:57:34.896Z,101636.25
2023-05-02T12:00:28.885Z,101637.47
2023-05-02T12:03:23.599Z,101632.34
2023-05-02T12:06:13.464Z,101634.63
2023-05-02T12:09:10.331Z,101633.72
2023-05-02T12:11:57.347Z,101631.34
2023-05-02T12:14:44.973Z,101642.56
2023-05-02T12:17:32.373Z,101652.88
2023-05-02T12:20:19.373Z,101642.31
2023-05-02T12:23:10.108Z,101650.88
2023-05-02T12:25:56.801Z,101655.47
2023-05-02T12:28:50.459Z,101667.84
2023-05-02T12:31:37.024Z,101664.88
2023-05-02T12:34:34.191Z,101663.50
2023-05-02T12:37:23.662Z,101660.06
2023-05-02T12:40:18.162Z,101661.94
2023-05-02T12:43:08.223Z,101668.91
2023-05-02T12:46:12.494Z,101671.50
2023-05-02T12:49:08.332Z,101674.81
2023-05-02T12:51:56.389Z,101667.34
2023-05-02T12:54:44.493Z,101676.25
2023-05-02T12:57:33.002Z,101677.28
2023-05-02T13:00:19.725Z,101684.69
2023-05-02T13:03:07.039Z,101687.94
2023-05-02T13:05:55.519Z,101670.00
2023-05-02T13:08:42.222Z,101689.59
2023-05-02T13:11:29.431Z,101689.34
2023-05-02T13:14:17.829Z,101693.00
2023-05-02T13:17:04.938Z,101696.00
2023-05-02T13:20:00.693Z,101705.44
2023-05-02T13:22:48.238Z,101701.28
2023-05-02T13:25:35.137Z,101706.00
2023-05-02T13:28:21.884Z,101702.59
2023-05-02T13:31:10.316Z,101709.19
2023-05-02T13:33:57.061Z,101726.41
2023-05-02T13:36:46.408Z,101723.19
2023-05-02T13:39:33.321Z,101733.31
2023-05-02T13:42:20.537Z,101725.94
2023-05-02T13:45:08.562Z,101727.44
2023-05-02T13:47:56.941Z,101726.09
2023-05-02T13:50:43.520Z,101733.00
2023-05-02T13:53:30.344Z,101735.50
2023-05-02T13:56:17.124Z,101732.47
2023-05-02T13:59:06.097Z,101738.44
2023-05-02T14:01:54.142Z,101737.16
2023-05-02T14:04:42.228Z,101746.06
2023-05-02T14:07:29.524Z,101746.13
2023-05-02T14:10:16.416Z,101760.25
2023-05-02T14:13:03.272Z,101767.47
2023-05-02T14:15:50.057Z,101762.09
2023-05-02T14:18:37.000Z,101770.47
2023-05-02T14:21:25.339Z,101776.25
2023-05-02T14:24:14.948Z,101774.38
2023-05-02T14:27:01.585Z,101714.25
2023-05-02T14:29:49.044Z,101791.06
2023-05-02T14:32:36.005Z,101795.56
2023-05-02T14:35:23.056Z,101793.66
2023-05-02T14:38:11.734Z,101796.47
2023-05-02T14:40:58.587Z,101799.47
2023-05-02T14:43:45.349Z,101811.78
2023-05-02T14:46:32.160Z,101806.09
2023-05-02T14:49:19.188Z,101780.31
2023-05-02T14:52:05.978Z,101818.28
2023-05-02T14:54:53.943Z,101819.91
2023-05-02T14:57:40.666Z,101814.38
2023-05-02T15:00:27.491Z,101832.69
2023-05-02T15:03:14.445Z,101810.13
2023-05-02T15:06:01.649Z,101823.19
2023-05-02T15:08:50.274Z,101819.78
2023-05-02T15:11:38.363Z,101830.81
2023-05-02T15:14:25.221Z,101833.91
2023-05-02T15:17:12.067Z,101837.91
2023-05-02T15:19:59.037Z,101846.41
2023-05-02T15:22:45.623Z,101840.84
2023-05-02T15:25:32.699Z,101834.69
2023-05-02T15:28:20.666Z,101830.84
2023-05-02T15:31:07.293Z,101835.44
2023-05-02T15:33:53.963Z,101831.38
2023-05-02T15:36:44.018Z,101846.69
2023-05-02T15:39:30.753Z,101843.13
2023-05-02T15:42:17.588Z,101834.31
2023-05-02T15:45:06.839Z,101840.50
2023-05-02T15:47:53.349Z,101836.31
2023-05-02T15:50:41.785Z,101835.25
2023-05-02T15:53:28.623Z,101838.88
2023-05-02T15:56:15.852Z,101840.56
2023-05-02T15:59:02.705Z,101847.72
2023-05-02T16:01:50.854Z,101844.50
2023-05-02T16:04:37.763Z,101851.69
2023-05-02T16:07:24.545Z,101843.63
2023-05-02T16:10:11.794Z,101848.81
2023-05-02T16:13:04.127Z,101818.81
2023-05-02T16:15:52.165Z,101844.59
2023-05-02T16:18:39.996Z,101848.88
2023-05-02T16:21:27.083Z,101850.91
2023-05-02T16:24:13.682Z,101857.69
2023-05-02T16:27:00.827Z,101850.13
2023-05-02T16:29:48.572Z,101845.34
2023-05-02T16:32:35.378Z,101843.53
2023-05-02T16:35:23.554Z,101850.47
2023-05-02T16:38:10.333Z,101855.63
2023-05-02T16:40:57.431Z,101855.16
2023-05-02T16:43:43.871Z,101856.81
2023-05-02T16:46:32.277Z,101854.28
2023-05-02T16:49:21.129Z,101847.97
2023-05-02T16:52:09.667Z,101850.00
2023-05-02T16:54:56.775Z,101858.91
2023-05-02T16:57:43.484Z,101860.19
2023-05-02T17:00:30.173Z,101870.28
2023-05-02T17:03:16.911Z,101859.81
2023-05-02T17:06:03.676Z,101866.19
2023-05-02T17:08:51.923Z,101863.59
2023-05-02T17:11:38.426Z,101868.75
2023-05-02T17:14:25.216Z,101870.66
2023-05-02T17:17:12.080Z,101871.88
2023-05-02T17:19:58.965Z,101868.94
2023-05-02T17:22:45.635Z,101875.31
2023-05-02T17:25:34.041Z,101881.47
2023-05-02T17:28:21.229Z,101831.38
2023-05-02T17:31:08.631Z,101880.75
2023-05-02T17:33:55.760Z,101887.66
2023-05-02T17:36:43.658Z,101892.91
2023-05-02T17:39:30.296Z,101890.66
2023-05-02T17:42:18.451Z,101898.97
2023-05-02T17:45:07.455Z,101902.22
2023-05-02T17:47:54.155Z,101899.81
2023-05-02T17:50:41.441Z,101900.34
2023-05-02T17:53:27.987Z,101897.78
2023-05-02T17:56:18.717Z,101899.19
2023-05-02T17:59:06.606Z,101905.34
2023-05-02T18:01:53.538Z,101908.34
2023-05-02T18:04:42.748Z,101909.59
2023-05-02T18:07:31.735Z,101914.22
2023-05-02T18:10:18.528Z,101916.16
2023-05-02T18:13:04.964Z,101922.47
2023-05-02T18:15:58.007Z,101923.84
2023-05-02T18:18:44.460Z,101921.50
2023-05-02T18:21:34.878Z,101928.75
2023-05-02T18:24:21.772Z,101934.78
2023-05-02T18:27:08.468Z,101932.41
2023-05-02T18:29:55.547Z,101936.31
2023-05-02T18:32:43.586Z,101938.16
2023-05-02T18:35:30.244Z,101938.34
2023-05-02T18:38:17.580Z,101941.09
2023-05-02T18:41:04.375Z,101942.13
2023-05-02T18:43:51.209Z,101936.88
2023-05-02T18:46:37.931Z,101943.16
2023-05-02T18:49:26.297Z,101943.25
2023-05-02T18:52:13.582Z,101943.28
2023-05-02T18:55:02.039Z,101944.88
2023-05-02T18:57:48.921Z,101945.75
2023-05-02T19:00:37.199Z,101945.69
2023-05-02T19:03:25.499Z,101953.56
2023-05-02T19:06:14.250Z,101962.44
2023-05-02T19:09:00.913Z,101956.13
2023-05-02T19:11:47.716Z,101964.00
2023-05-02T19:14:35.946Z,101953.53
2023-05-02T19:17:25.715Z,101963.28
2023-05-02T19:20:13.006Z,101966.75
2023-05-02T19:23:18.496Z,101969.22
2023-05-02T19:26:11.830Z,101968.34
2023-05-02T19:28:58.449Z,101976.28
2023-05-02T19:31:50.642Z,101969.22
2023-05-02T19:34:37.747Z,101931.47
2023-05-02T19:37:24.145Z,101985.84
2023-05-02T19:40:13.653Z,101990.28
2023-05-02T19:43:00.337Z,101993.78
2023-05-02T19:45:47.135Z,102000.06
2023-05-02T19:48:33.913Z,101994.03
2023-05-02T19:51:25.310Z,102004.63
2023-05-02T19:54:11.909Z,102002.81
2023-05-02T19:56:59.890Z,101995.72
2023-05-02T19:59:46.673Z,101999.19
2023-05-02T20:02:33.750Z,102006.38
2023-05-02T20:05:20.614Z,102002.91
2023-05-02T20:08:07.071Z,102014.22
2023-05-02T20:10:53.907Z,102018.66
2023-05-02T20:13:42.108Z,102011.50
2023-05-02T20:16:31.268Z,102007.97
2023-05-02T20:19:19.918Z,102016.78
2023-05-02T20:22:07.497Z,102015.75
2023-05-02T20:24:54.289Z,102017.50
2023-05-02T20:27:41.013Z,102028.19
2023-05-02T20:30:28.996Z,102023.59
2023-05-02T20:33:17.089Z,102018.44
2023-05-02T20:36:05.091Z,102025.38
2023-05-02T20:38:51.494Z,102032.28
2023-05-02T20:41:38.480Z,102033.28
2023-05-02T20:44:26.452Z,102031.63
2023-05-02T20:47:14.211Z,102034.19
2023-05-02T20:50:01.469Z,102038.53
2023-05-02T20:52:50.591Z,102041.28
2023-05-02T20:55:37.421Z,102038.69
2023-05-02T20:58:24.109Z,102044.03
2023-05-02T21:01:11.629Z,102046.69
2023-05-02T21:03:59.898Z,102051.16
2023-05-02T21:06:48.681Z,102053.81
2023-05-02T21:09:36.440Z,102058.28
2023-05-02T21:12:26.511Z,102059.06
2023-05-02T21:15:14.429Z,102066.06
2023-05-02T21:18:02.854Z,102056.38
2023-05-02T21:20:55.263Z,102063.91
2023-05-02T21:23:42.955Z,102071.06
2023-05-02T21:26:31.103Z,102068.03
2023-05-02T21:29:26.226Z,102063.69
2023-05-02T21:32:14.307Z,102072.59
2023-05-02T21:35:05.205Z,102072.75
2023-05-02T21:37:54.487Z,102070.84
2023-05-02T21:40:44.707Z,102080.56
2023-05-02T21:43:36.838Z,102080.59
2023-05-02T21:46:24.721Z,102071.06
2023-05-02T21:49:11.983Z,102078.22
2023-05-02T21:51:59.537Z,102078.16
2023-05-02T21:54:50.119Z,102080.81
2023-05-02T21:57:36.775Z,102071.84
2023-05-02T22:00:23.684Z,102074.56
2023-05-02T22:03:11.926Z,102077.13
2023-05-02T22:06:04.949Z,102076.28
2023-05-02T22:08:51.764Z,102080.72
2023-05-02T22:11:42.335Z,102085.22
2023-05-02T22:14:37.610Z,102085.28
2023-05-02T22:17:31.824Z,102085.78
2023-05-02T22:20:18.552Z,102084.25
2023-05-02T22:23:05.410Z,102082.59
2023-05-02T22:25:52.291Z,102087.63
2023-05-02T22:28:40.162Z,102086.63
2023-05-02T22:31:27.663Z,102091.97
2023-05-02T22:34:14.365Z,102097.53
2023-05-02T22:37:01.369Z,102101.19
2023-05-02T22:39:48.068Z,102097.59
2023-05-02T22:42:34.816Z,102097.63
2023-05-02T22:45:23.017Z,102104.75
2023-05-02T22:48:09.903Z,102103.91
2023-05-02T22:50:56.608Z,102113.72
2023-05-02T22:53:43.290Z,102113.72
2023-05-02T22:56:30.141Z,102115.53
2023-05-02T22:59:16.874Z,102120.91
2023-05-02T23:02:05.188Z,102127.16
2023-05-02T23:04:52.113Z,102128.97
2023-05-02T23:07:38.690Z,102125.47
2023-05-02T23:10:25.526Z,102130.75
2023-05-02T23:13:12.296Z,102132.53
2023-05-02T23:15:59.197Z,102124.56
2023-05-02T23:18:48.279Z,102138.72
2023-05-02T23:21:34.904Z,102143.16
2023-05-02T23:24:31.764Z,102136.94
2023-05-02T23:27:21.063Z,102138.75
2023-05-02T23:30:10.808Z,102142.28
2023-05-02T23:32:59.745Z,102146.78
2023-05-02T23:35:51.531Z,102144.03
2023-05-02T23:38:40.250Z,102147.59
2023-05-02T23:41:28.790Z,102141.41
2023-05-02T23:44:16.865Z,102140.59
2023-05-02T23:47:05.335Z,102137.91
2023-05-02T23:49:53.265Z,102138.91
2023-05-02T23:52:43.030Z,102139.72
2023-05-02T23:55:29.833Z,102138.00
2023-05-02T23:58:16.596Z,102145.09
